Flugplatz Ochsenfurt (EDGJ)

Hier findest Du alle Informationen zum Flugplatz Ochsenfurt (EDGJ).

Informationen für Piloten zum Flugplatz Ochsenfurt

Hier findest Du alle relevanten Informationen, die Du als Pilot benötigst, um Ochsenfurt anzufliegen.

Flugplatz: Ochsenfurt ICAO-Code: EDGJ
Frequenz Turm: 123,000 Mhz GAFOR Gebiet: 54
Frequenz Ground: 123,000 Mhz Mogas: nein
Platzrunde: N 1600 ft Landegebühr: -
Platzhöhe: - Sunrise: 03:19 Uhr UTC
Pisten: 10/28 - 512 m x 20 m, GRAS Sunset: 19:14 Uhr UTC

Mitglieder, die in Ochsenfurt fliegen

Flugwetter am Flugplatz Ochsenfurt

Die METAR Information stammen aus EDDN (75.15 km entfernt).

METAR Code:
2022/05/15 13:50
EDDN 151350Z AUTO VRB03KT CAVOK 25/06 Q1018 NOSIG

Temperatur: 14,8 °C Niederschlag: - Wind: 8,0 kt (max.: 20,3 kt in Böen)
Temperatur (min.): 14,5 °C Luftdruck: 1022 hPa Windrichtung: 237 °
Temperatur (max.): 15,0 °C Luftfeuchtigkeit: 90 % Bewölkung: 8/8

Flugschulen am Flugplatz Ochsenfurt

Am Flugplatz Ochsenfurt gibt es leider keine Flugschule.

Benachbarte Flugplätze und Flugschulen

Es gibt 22 weitere Flugplätze in einem Umkreis von 50 km um den Flugplatz Ochsenfurt.

Jetzt anmelden

Passwort vergessen

Umfrage Archiv

Sendet Ihr ADS-B und/oder FLARM?

Ja
81.6 %
Nein
18.4 %
Stimmen: 147 | Diskussion
Anzeige: Roland Aircraft
Statistik Alle Mitglieder

Aktuell sind 55 Besucher online.

Anzeige: ULPower Aero Engines Anzeige: Pocket FMS